ZSMUL FNHU-FNLU
Flight info
| Callsign | ZSMUL |
|---|---|
| Flight time | N/A |
| Altitude | 12000 |
| Route | KU G853 TUTIM/N0210F140 G853 MEMAS |
| Aircraft | DC6/M-SDFGRWY/S |
Departure
| Time | N/A |
|---|---|
| Airport | Albano Machado Airport (FNHU) |
Arrival
| Time | 2026-04-29 11:25 |
|---|---|
| Airport | Quatro de Fevereiro International Airport (FNLU) |
| Time | Latitude | Longitude | Altitude | Speed | Heading |
|---|---|---|---|---|---|
| 2026-04-29 11:00 | -9.65135 | 13.26088 | 363 ft | 0 kts | 32° |
| 2026-04-29 11:00 | -9.65130 | 13.26096 | 365 ft | 2 kts | 71° |
| 2026-04-29 11:00 | -9.65127 | 13.26114 | 370 ft | 3 kts | 82° |
| 2026-04-29 11:01 | -9.65124 | 13.26141 | 366 ft | 5 kts | 86° |
| 2026-04-29 11:01 | -9.65127 | 13.26186 | 364 ft | 7 kts | 105° |
| 2026-04-29 11:01 | -9.65168 | 13.26225 | 368 ft | 9 kts | 166° |
| 2026-04-29 11:01 | -9.65216 | 13.26250 | 367 ft | 6 kts | 126° |
| 2026-04-29 11:02 | -9.65224 | 13.26276 | 366 ft | 3 kts | 95° |
| 2026-04-29 11:02 | -9.65221 | 13.26315 | 366 ft | 8 kts | 76° |
| 2026-04-29 11:02 | -9.65200 | 13.26386 | 372 ft | 13 kts | 74° |
| 2026-04-29 11:02 | -9.65168 | 13.26485 | 373 ft | 17 kts | 73° |
| 2026-04-29 11:03 | -9.65130 | 13.26611 | 368 ft | 20 kts | 73° |
| 2026-04-29 11:03 | -9.65089 | 13.26742 | 370 ft | 18 kts | 72° |
| 2026-04-29 11:03 | -9.65057 | 13.26847 | 371 ft | 13 kts | 73° |
| 2026-04-29 11:03 | -9.65034 | 13.26924 | 372 ft | 10 kts | 73° |
| 2026-04-29 11:04 | -9.65011 | 13.26998 | 373 ft | 13 kts | 72° |
| 2026-04-29 11:04 | -9.64978 | 13.27102 | 375 ft | 18 kts | 72° |
| 2026-04-29 11:04 | -9.64942 | 13.27216 | 376 ft | 15 kts | 72° |
| 2026-04-29 11:04 | -9.64899 | 13.27293 | 377 ft | 11 kts | 33° |
| 2026-04-29 11:05 | -9.64878 | 13.27315 | 377 ft | 0 kts | 88° |
| 2026-04-29 11:05 | -9.64878 | 13.27319 | 377 ft | 2 kts | 107° |
| 2026-04-29 11:05 | -9.64900 | 13.27325 | 376 ft | 6 kts | 211° |
| 2026-04-29 11:05 | -9.64920 | 13.27282 | 377 ft | 11 kts | 252° |
| 2026-04-29 11:06 | -9.64986 | 13.27073 | 374 ft | 51 kts | 253° |
| 2026-04-29 11:06 | -9.65132 | 13.26602 | 369 ft | 88 kts | 253° |
| 2026-04-29 11:06 | -9.65342 | 13.25925 | 395 ft | 109 kts | 252° |
| 2026-04-29 11:06 | -9.65586 | 13.25145 | 464 ft | 122 kts | 252° |
| 2026-04-29 11:07 | -9.65825 | 13.24290 | 564 ft | 132 kts | 265° |
| 2026-04-29 11:07 | -9.65683 | 13.23325 | 644 ft | 147 kts | 295° |
| 2026-04-29 11:07 | -9.65014 | 13.22524 | 789 ft | 156 kts | 326° |
| 2026-04-29 11:07 | -9.64014 | 13.22084 | 1053 ft | 157 kts | 353° |
| 2026-04-29 11:08 | -9.62926 | 13.22172 | 1206 ft | 160 kts | 10° |
| 2026-04-29 11:08 | -9.61827 | 13.22419 | 1282 ft | 162 kts | 13° |
| 2026-04-29 11:08 | -9.60725 | 13.22654 | 1434 ft | 163 kts | 12° |
| 2026-04-29 11:08 | -9.59591 | 13.22870 | 1634 ft | 167 kts | 11° |
| 2026-04-29 11:09 | -9.58439 | 13.23075 | 1825 ft | 170 kts | 11° |
| 2026-04-29 11:09 | -9.57270 | 13.23273 | 2036 ft | 171 kts | 11° |
| 2026-04-29 11:09 | -9.56094 | 13.23471 | 2224 ft | 172 kts | 11° |
| 2026-04-29 11:09 | -9.54926 | 13.23660 | 2395 ft | 173 kts | 11° |
| 2026-04-29 11:10 | -9.53736 | 13.23856 | 2598 ft | 173 kts | 11° |
| 2026-04-29 11:10 | -9.52547 | 13.24050 | 2792 ft | 173 kts | 11° |
| 2026-04-29 11:10 | -9.51355 | 13.24247 | 2924 ft | 174 kts | 11° |
| 2026-04-29 11:10 | -9.50160 | 13.24447 | 3080 ft | 175 kts | 12° |
| 2026-04-29 11:11 | -9.48960 | 13.24645 | 3229 ft | 175 kts | 10° |
| 2026-04-29 11:11 | -9.47754 | 13.24841 | 3386 ft | 176 kts | 11° |
| 2026-04-29 11:11 | -9.46548 | 13.25041 | 3560 ft | 176 kts | 11° |
| 2026-04-29 11:11 | -9.45343 | 13.25237 | 3717 ft | 176 kts | 11° |
| 2026-04-29 11:12 | -9.44151 | 13.25437 | 3888 ft | 176 kts | 11° |
| 2026-04-29 11:12 | -9.42941 | 13.25640 | 4041 ft | 177 kts | 11° |
| 2026-04-29 11:12 | -9.41726 | 13.25843 | 4191 ft | 178 kts | 11° |
| 2026-04-29 11:12 | -9.40506 | 13.26047 | 4359 ft | 178 kts | 11° |
| 2026-04-29 11:13 | -9.39285 | 13.26252 | 4509 ft | 178 kts | 11° |
| 2026-04-29 11:13 | -9.38061 | 13.26455 | 4673 ft | 178 kts | 11° |
| 2026-04-29 11:13 | -9.36835 | 13.26660 | 4848 ft | 178 kts | 11° |
| 2026-04-29 11:13 | -9.35614 | 13.26862 | 5011 ft | 178 kts | 11° |
| 2026-04-29 11:14 | -9.34410 | 13.27056 | 5157 ft | 177 kts | 11° |
| 2026-04-29 11:14 | -9.33193 | 13.27249 | 5303 ft | 177 kts | 11° |
| 2026-04-29 11:14 | -9.31977 | 13.27438 | 5481 ft | 177 kts | 11° |
| 2026-04-29 11:14 | -9.30756 | 13.27625 | 5641 ft | 178 kts | 11° |
| 2026-04-29 11:15 | -9.29532 | 13.27809 | 5808 ft | 178 kts | 11° |
| 2026-04-29 11:15 | -9.28306 | 13.27991 | 5971 ft | 178 kts | 11° |
| 2026-04-29 11:15 | -9.27078 | 13.28170 | 6151 ft | 178 kts | 11° |
| 2026-04-29 11:15 | -9.25848 | 13.28341 | 6314 ft | 178 kts | 11° |
| 2026-04-29 11:16 | -9.24636 | 13.28508 | 6458 ft | 178 kts | 11° |
| 2026-04-29 11:16 | -9.23409 | 13.28673 | 6584 ft | 178 kts | 11° |
| 2026-04-29 11:16 | -9.22182 | 13.28839 | 6711 ft | 178 kts | 11° |
| 2026-04-29 11:16 | -9.20956 | 13.29009 | 6850 ft | 177 kts | 11° |
| 2026-04-29 11:17 | -9.19731 | 13.29175 | 6974 ft | 178 kts | 11° |
| 2026-04-29 11:17 | -9.18507 | 13.29341 | 7106 ft | 177 kts | 11° |
| 2026-04-29 11:17 | -9.17283 | 13.29505 | 7253 ft | 177 kts | 11° |
| 2026-04-29 11:17 | -9.16063 | 13.29672 | 7377 ft | 177 kts | 11° |
| 2026-04-29 11:18 | -9.14843 | 13.29838 | 7488 ft | 177 kts | 11° |
| 2026-04-29 11:18 | -9.13604 | 13.30001 | 7524 ft | 185 kts | 11° |
| 2026-04-29 11:18 | -9.12306 | 13.29901 | 7536 ft | 195 kts | 350° |
| 2026-04-29 11:18 | -9.10980 | 13.29559 | 7527 ft | 198 kts | 349° |
| 2026-04-29 11:19 | -9.09599 | 13.29225 | 7243 ft | 211 kts | 350° |
| 2026-04-29 11:19 | -9.08119 | 13.28871 | 6917 ft | 224 kts | 349° |
| 2026-04-29 11:19 | -9.06543 | 13.28489 | 6455 ft | 241 kts | 349° |
| 2026-04-29 11:19 | -9.04867 | 13.28082 | 5997 ft | 254 kts | 348° |
| 2026-04-29 11:20 | -9.03103 | 13.27654 | 5394 ft | 268 kts | 348° |
| 2026-04-29 11:20 | -9.01248 | 13.27203 | 4792 ft | 279 kts | 347° |
| 2026-04-29 11:20 | -8.99327 | 13.26736 | 4180 ft | 288 kts | 347° |
| 2026-04-29 11:20 | -8.97443 | 13.26124 | 3559 ft | 291 kts | 333° |
| 2026-04-29 11:21 | -8.95958 | 13.24746 | 2869 ft | 294 kts | 304° |
| 2026-04-29 11:21 | -8.95165 | 13.22854 | 2254 ft | 292 kts | 288° |
| 2026-04-29 11:21 | -8.94596 | 13.20897 | 1678 ft | 288 kts | 284° |
| 2026-04-29 11:21 | -8.94131 | 13.18977 | 1517 ft | 269 kts | 287° |
| 2026-04-29 11:22 | -8.93135 | 13.17493 | 1508 ft | 249 kts | 321° |
| 2026-04-29 11:22 | -8.91609 | 13.16883 | 1511 ft | 231 kts | 356° |
| 2026-04-29 11:22 | -8.90117 | 13.17231 | 1517 ft | 213 kts | 25° |
| 2026-04-29 11:22 | -8.88770 | 13.17745 | 1535 ft | 205 kts | 18° |
| 2026-04-29 11:23 | -8.87423 | 13.18105 | 1468 ft | 198 kts | 12° |
| 2026-04-29 11:23 | -8.86229 | 13.18658 | 1273 ft | 186 kts | 53° |
| 2026-04-29 11:23 | -8.86018 | 13.19829 | 1203 ft | 166 kts | 97° |
| 2026-04-29 11:23 | -8.86047 | 13.20977 | 890 ft | 158 kts | 80° |
| 2026-04-29 11:24 | -8.85765 | 13.21998 | 455 ft | 141 kts | 70° |
| 2026-04-29 11:24 | -8.85439 | 13.22840 | 251 ft | 117 kts | 67° |
| 2026-04-29 11:24 | -8.85163 | 13.23510 | 241 ft | 82 kts | 67° |
| 2026-04-29 11:24 | -8.84991 | 13.23931 | 240 ft | 51 kts | 67° |
| 2026-04-29 11:25 | -8.84885 | 13.24187 | 237 ft | 36 kts | 67° |
| 2026-04-29 11:25 | -8.84812 | 13.24362 | 239 ft | 16 kts | 57° |
| 2026-04-29 11:25 | -8.84746 | 13.24373 | 234 ft | 10 kts | 335° |
| 2026-04-29 11:25 | -8.84673 | 13.24340 | 236 ft | 12 kts | 336° |
| 2026-04-29 11:26 | -8.84615 | 13.24272 | 235 ft | 6 kts | 249° |
| 2026-04-29 11:26 | -8.84639 | 13.24215 | 237 ft | 9 kts | 246° |
| 2026-04-29 11:26 | -8.84644 | 13.24189 | 237 ft | 1 kts | 308° |
| 2026-04-29 11:27 | -8.84632 | 13.24183 | 236 ft | 4 kts | 340° |
| 2026-04-29 11:27 | -8.84598 | 13.24168 | 236 ft | 0 kts | 335° |